Terminal Aerodrome Forecast
Issued by NWS

Home | Current Version | Previous Version | Text Only | Print | Product List | Glossary On
Versions: 1 2 3 4 5 6 7 8 9 10 11 12
747
FTUS45 KVEF 250534
TAFVGT
TAF
KVGT 250534Z 2506/2606 26011KT P6SM SCT150
     FM250900 32007KT P6SM SCT150
     FM251600 14007KT P6SM SCT150
     FM260000 22010KT P6SM SCT150=

USA.gov is the U.S. government's official web portal to all federal, state and local government web resources and services.